sensor_id;sensor_type;location;lat;lon;timestamp;pressure;altitude;pressure_sealevel;temperature;humidity
52625;BME280;38519;52.540;13.410;2023-03-26T00:00:41;99346.19;;;7.52;100.00
52625;BME280;38519;52.540;13.410;2023-03-26T00:03:11;99351.19;;;7.49;100.00
52625;BME280;38519;52.540;13.410;2023-03-26T00:05:37;99348.41;;;7.46;100.00
52625;BME280;38519;52.540;13.410;2023-03-26T00:08:02;99356.28;;;7.47;100.00
52625;BME280;38519;52.540;13.410;2023-03-26T00:10:28;99358.00;;;7.47;100.00
52625;BME280;38519;52.540;13.410;2023-03-26T00:12:53;99358.97;;;7.49;100.00
52625;BME280;38519;52.540;13.410;2023-03-26T00:15:18;99357.00;;;7.45;100.00
52625;BME280;38519;52.540;13.410;2023-03-26T00:17:43;99356.91;;;7.43;100.00
52625;BME280;38519;52.540;13.410;2023-03-26T00:20:10;99357.47;;;7.53;100.00
52625;BME280;38519;52.540;13.410;2023-03-26T00:22:36;99356.38;;;7.49;100.00
52625;BME280;38519;52.540;13.410;2023-03-26T00:25:02;99363.09;;;7.45;100.00
52625;BME280;38519;52.540;13.410;2023-03-26T00:27:27;99361.47;;;7.47;100.00
52625;BME280;38519;52.540;13.410;2023-03-26T00:29:53;99362.66;;;7.53;100.00
52625;BME280;38519;52.540;13.410;2023-03-26T00:32:20;99364.38;;;7.52;100.00
52625;BME280;38519;52.540;13.410;2023-03-26T00:34:45;99362.41;;;7.48;100.00
52625;BME280;38519;52.540;13.410;2023-03-26T00:37:10;99359.91;;;7.50;100.00
52625;BME280;38519;52.540;13.410;2023-03-26T00:39:36;99363.69;;;7.55;100.00
52625;BME280;38519;52.540;13.410;2023-03-26T00:42:03;99365.25;;;7.53;100.00
52625;BME280;38519;52.540;13.410;2023-03-26T00:44:31;99362.75;;;7.54;100.00
52625;BME280;38519;52.540;13.410;2023-03-26T00:46:56;99357.56;;;7.54;100.00
52625;BME280;38519;52.540;13.410;2023-03-26T00:49:21;99363.19;;;7.47;100.00
52625;BME280;38519;52.540;13.410;2023-03-26T00:51:46;99364.19;;;7.49;100.00
52625;BME280;38519;52.540;13.410;2023-03-26T00:54:12;99358.00;;;7.47;100.00
52625;BME280;38519;52.540;13.410;2023-03-26T00:56:37;99355.00;;;7.41;100.00
52625;BME280;38519;52.540;13.410;2023-03-26T00:59:02;99357.69;;;7.42;100.00
52625;BME280;38519;52.540;13.410;2023-03-26T01:01:28;99369.19;;;7.46;100.00
52625;BME280;38519;52.540;13.410;2023-03-26T01:03:54;99357.91;;;7.45;100.00
52625;BME280;38519;52.540;13.410;2023-03-26T01:06:24;99358.09;;;7.48;100.00
52625;BME280;38519;52.540;13.410;2023-03-26T01:08:57;99373.69;;;7.48;100.00
52625;BME280;38519;52.540;13.410;2023-03-26T01:11:29;99377.06;;;7.47;100.00
52625;BME280;38519;52.540;13.410;2023-03-26T01:14:13;99373.88;;;7.52;100.00
52625;BME280;38519;52.540;13.410;2023-03-26T01:16:50;99371.78;;;7.46;100.00
52625;BME280;38519;52.540;13.410;2023-03-26T01:22:03;99388.38;;;7.48;100.00
52625;BME280;38519;52.540;13.410;2023-03-26T01:24:29;99398.38;;;7.42;100.00
52625;BME280;38519;52.540;13.410;2023-03-26T01:31:54;99386.78;;;7.10;100.00
52625;BME280;38519;52.540;13.410;2023-03-26T01:34:23;99393.69;;;7.09;100.00
52625;BME280;38519;52.540;13.410;2023-03-26T01:39:45;99394.59;;;7.10;100.00
52625;BME280;38519;52.540;13.410;2023-03-26T01:42:57;99385.09;;;7.10;100.00
52625;BME280;38519;52.540;13.410;2023-03-26T01:45:04;99386.59;;;7.07;100.00
52625;BME280;38519;52.540;13.410;2023-03-26T01:47:31;99387.91;;;7.00;100.00
52625;BME280;38519;52.540;13.410;2023-03-26T01:49:57;99388.78;;;7.01;100.00
52625;BME280;38519;52.540;13.410;2023-03-26T01:52:23;99384.28;;;6.98;100.00
52625;BME280;38519;52.540;13.410;2023-03-26T01:54:50;99385.09;;;6.97;100.00
52625;BME280;38519;52.540;13.410;2023-03-26T02:07:43;99381.41;;;7.07;100.00
52625;BME280;38519;52.540;13.410;2023-03-26T02:10:16;99389.19;;;7.07;100.00
52625;BME280;38519;52.540;13.410;2023-03-26T02:12:45;99386.91;;;7.11;100.00
52625;BME280;38519;52.540;13.410;2023-03-26T02:15:10;99379.00;;;7.10;100.00
52625;BME280;38519;52.540;13.410;2023-03-26T02:17:36;99390.38;;;6.99;100.00
52625;BME280;38519;52.540;13.410;2023-03-26T02:20:05;99379.81;;;6.96;100.00
52625;BME280;38519;52.540;13.410;2023-03-26T02:22:30;99371.50;;;6.88;100.00
52625;BME280;38519;52.540;13.410;2023-03-26T02:24:55;99378.50;;;6.89;100.00
52625;BME280;38519;52.540;13.410;2023-03-26T02:27:21;99386.00;;;6.84;100.00
52625;BME280;38519;52.540;13.410;2023-03-26T02:29:46;99385.56;;;6.78;100.00
52625;BME280;38519;52.540;13.410;2023-03-26T02:32:11;99380.47;;;6.66;100.00
52625;BME280;38519;52.540;13.410;2023-03-26T02:34:40;99383.88;;;6.65;100.00
52625;BME280;38519;52.540;13.410;2023-03-26T02:37:05;99378.56;;;6.64;100.00
52625;BME280;38519;52.540;13.410;2023-03-26T02:39:31;99380.84;;;6.59;100.00
52625;BME280;38519;52.540;13.410;2023-03-26T02:41:56;99390.44;;;6.60;100.00
52625;BME280;38519;52.540;13.410;2023-03-26T02:44:21;99401.41;;;6.56;100.00
52625;BME280;38519;52.540;13.410;2023-03-26T02:46:47;99395.63;;;6.60;100.00
52625;BME280;38519;52.540;13.410;2023-03-26T02:49:12;99396.53;;;6.61;100.00
52625;BME280;38519;52.540;13.410;2023-03-26T02:51:38;99401.50;;;6.57;100.00
52625;BME280;38519;52.540;13.410;2023-03-26T02:54:03;99400.72;;;6.59;100.00
52625;BME280;38519;52.540;13.410;2023-03-26T02:56:28;99404.09;;;6.57;100.00
52625;BME280;38519;52.540;13.410;2023-03-26T02:58:54;99399.91;;;6.60;100.00
52625;BME280;38519;52.540;13.410;2023-03-26T03:01:19;99400.31;;;6.66;100.00
52625;BME280;38519;52.540;13.410;2023-03-26T03:03:44;99419.19;;;6.77;100.00
52625;BME280;38519;52.540;13.410;2023-03-26T03:06:11;99414.31;;;6.81;100.00
52625;BME280;38519;52.540;13.410;2023-03-26T03:08:36;99422.31;;;6.84;100.00
52625;BME280;38519;52.540;13.410;2023-03-26T03:11:05;99415.72;;;6.89;100.00
52625;BME280;38519;52.540;13.410;2023-03-26T03:13:32;99413.03;;;6.88;100.00
52625;BME280;38519;52.540;13.410;2023-03-26T03:15:58;99414.13;;;6.91;100.00
52625;BME280;38519;52.540;13.410;2023-03-26T03:18:23;99416.94;;;6.95;100.00
52625;BME280;38519;52.540;13.410;2023-03-26T03:20:48;99415.03;;;6.92;100.00
52625;BME280;38519;52.540;13.410;2023-03-26T03:23:14;99416.81;;;6.93;100.00
52625;BME280;38519;52.540;13.410;2023-03-26T03:25:40;99419.31;;;6.91;100.00
52625;BME280;38519;52.540;13.410;2023-03-26T03:28:05;99419.31;;;6.91;100.00
52625;BME280;38519;52.540;13.410;2023-03-26T03:30:31;99431.31;;;6.89;100.00
52625;BME280;38519;52.540;13.410;2023-03-26T03:32:56;99413.53;;;6.96;100.00
52625;BME280;38519;52.540;13.410;2023-03-26T03:35:22;99413.44;;;6.94;100.00
52625;BME280;38519;52.540;13.410;2023-03-26T03:37:48;99423.22;;;6.98;100.00
52625;BME280;38519;52.540;13.410;2023-03-26T03:40:13;99417.13;;;6.98;100.00
52625;BME280;38519;52.540;13.410;2023-03-26T03:42:38;99426.72;;;6.99;100.00
52625;BME280;38519;52.540;13.410;2023-03-26T03:45:04;99431.41;;;7.04;100.00
52625;BME280;38519;52.540;13.410;2023-03-26T03:47:30;99429.22;;;7.10;100.00
52625;BME280;38519;52.540;13.410;2023-03-26T03:49:55;99429.13;;;7.09;100.00
52625;BME280;38519;52.540;13.410;2023-03-26T03:52:21;99429.13;;;7.09;100.00
52625;BME280;38519;52.540;13.410;2023-03-26T03:54:46;99434.31;;;7.09;100.00
52625;BME280;38519;52.540;13.410;2023-03-26T03:57:11;99431.72;;;6.96;100.00
52625;BME280;38519;52.540;13.410;2023-03-26T03:59:37;99425.91;;;7.00;100.00
52625;BME280;38519;52.540;13.410;2023-03-26T04:02:03;99428.13;;;7.07;100.00
52625;BME280;38519;52.540;13.410;2023-03-26T04:04:28;99432.22;;;7.03;100.00
52625;BME280;38519;52.540;13.410;2023-03-26T04:06:53;99435.59;;;7.02;100.00
52625;BME280;38519;52.540;13.410;2023-03-26T04:09:18;99435.72;;;7.04;100.00
52625;BME280;38519;52.540;13.410;2023-03-26T04:11:44;99435.03;;;7.06;100.00
52625;BME280;38519;52.540;13.410;2023-03-26T04:14:09;99442.00;;;7.07;100.00
52625;BME280;38519;52.540;13.410;2023-03-26T04:16:34;99448.78;;;7.05;100.00
52625;BME280;38519;52.540;13.410;2023-03-26T04:19:00;99442.59;;;7.03;100.00
52625;BME280;38519;52.540;13.410;2023-03-26T04:21:26;99447.78;;;7.03;100.00
52625;BME280;38519;52.540;13.410;2023-03-26T04:23:54;99438.09;;;7.01;100.00
52625;BME280;38519;52.540;13.410;2023-03-26T04:26:19;99441.78;;;7.04;100.00
52625;BME280;38519;52.540;13.410;2023-03-26T04:28:47;99445.97;;;7.02;100.00
52625;BME280;38519;52.540;13.410;2023-03-26T04:31:16;99437.41;;;7.03;100.00
52625;BME280;38519;52.540;13.410;2023-03-26T04:33:44;99431.50;;;7.06;100.00
52625;BME280;38519;52.540;13.410;2023-03-26T04:36:12;99440.91;;;7.04;100.00
52625;BME280;38519;52.540;13.410;2023-03-26T04:38:41;99437.63;;;7.06;100.00
52625;BME280;38519;52.540;13.410;2023-03-26T04:41:10;99435.81;;;7.05;100.00
52625;BME280;38519;52.540;13.410;2023-03-26T04:43:35;99439.69;;;6.99;100.00
52625;BME280;38519;52.540;13.410;2023-03-26T04:46:06;99439.28;;;6.92;100.00
52625;BME280;38519;52.540;13.410;2023-03-26T04:48:31;99437.47;;;6.91;100.00
52625;BME280;38519;52.540;13.410;2023-03-26T04:50:56;99439.88;;;6.88;100.00
52625;BME280;38519;52.540;13.410;2023-03-26T04:53:22;99436.50;;;6.89;100.00
52625;BME280;38519;52.540;13.410;2023-03-26T04:58:33;99436.19;;;6.85;100.00
52625;BME280;38519;52.540;13.410;2023-03-26T05:00:59;99438.19;;;6.89;100.00
52625;BME280;38519;52.540;13.410;2023-03-26T05:03:29;99440.06;;;6.91;100.00
52625;BME280;38519;52.540;13.410;2023-03-26T05:05:59;99447.06;;;6.92;100.00
52625;BME280;38519;52.540;13.410;2023-03-26T05:08:24;99443.50;;;6.90;100.00
52625;BME280;38519;52.540;13.410;2023-03-26T05:10:50;99451.06;;;6.87;100.00
52625;BME280;38519;52.540;13.410;2023-03-26T05:13:16;99443.50;;;6.90;100.00
52625;BME280;38519;52.540;13.410;2023-03-26T05:15:41;99447.28;;;6.96;100.00
52625;BME280;38519;52.540;13.410;2023-03-26T05:18:06;99452.25;;;6.92;100.00
52625;BME280;38519;52.540;13.410;2023-03-26T05:20:32;99446.66;;;7.00;100.00
52625;BME280;38519;52.540;13.410;2023-03-26T05:22:58;99451.69;;;6.97;100.00
52625;BME280;38519;52.540;13.410;2023-03-26T05:25:23;99446.78;;;7.01;100.00
52625;BME280;38519;52.540;13.410;2023-03-26T05:27:48;99446.50;;;6.97;100.00
52625;BME280;38519;52.540;13.410;2023-03-26T05:30:15;99450.50;;;7.05;100.00
52625;BME280;38519;52.540;13.410;2023-03-26T05:32:41;99448.28;;;6.98;100.00
52625;BME280;38519;52.540;13.410;2023-03-26T05:35:06;99446.78;;;7.01;100.00
52625;BME280;38519;52.540;13.410;2023-03-26T05:37:32;99446.56;;;6.98;100.00
52625;BME280;38519;52.540;13.410;2023-03-26T05:39:57;99454.75;;;7.04;100.00
52625;BME280;38519;52.540;13.410;2023-03-26T05:42:23;99451.97;;;7.01;100.00
52625;BME280;38519;52.540;13.410;2023-03-26T05:44:48;99453.19;;;7.06;100.00
52625;BME280;38519;52.540;13.410;2023-03-26T05:47:14;99457.25;;;7.03;100.00
52625;BME280;38519;52.540;13.410;2023-03-26T05:49:39;99461.56;;;7.02;100.00
52625;BME280;38519;52.540;13.410;2023-03-26T05:52:04;99446.97;;;7.04;100.00
52625;BME280;38519;52.540;13.410;2023-03-26T05:54:30;99457.16;;;7.01;100.00
52625;BME280;38519;52.540;13.410;2023-03-26T05:56:55;99451.97;;;7.01;100.00
52625;BME280;38519;52.540;13.410;2023-03-26T05:59:21;99458.44;;;6.95;100.00
52625;BME280;38519;52.540;13.410;2023-03-26T06:01:46;99453.97;;;6.92;100.00
52625;BME280;38519;52.540;13.410;2023-03-26T06:04:12;99455.22;;;6.85;100.00
52625;BME280;38519;52.540;13.410;2023-03-26T06:06:37;99453.34;;;6.83;100.00
52625;BME280;38519;52.540;13.410;2023-03-26T06:09:03;99446.97;;;6.78;100.00
52625;BME280;38519;52.540;13.410;2023-03-26T06:11:29;99457.03;;;6.73;100.00
52625;BME280;38519;52.540;13.410;2023-03-26T06:13:55;99459.00;;;6.77;100.00
52625;BME280;38519;52.540;13.410;2023-03-26T06:16:21;99464.59;;;6.70;100.00
52625;BME280;38519;52.540;13.410;2023-03-26T06:18:46;99463.28;;;6.63;100.00
52625;BME280;38519;52.540;13.410;2023-03-26T06:21:11;99462.88;;;6.45;100.00
52625;BME280;38519;52.540;13.410;2023-03-26T06:23:36;99463.53;;;6.54;100.00
52625;BME280;38519;52.540;13.410;2023-03-26T06:26:01;99470.75;;;6.59;100.00
52625;BME280;38519;52.540;13.410;2023-03-26T06:28:27;99467.75;;;6.66;100.00
52625;BME280;38519;52.540;13.410;2023-03-26T06:30:52;99477.16;;;6.77;100.00
52625;BME280;38519;52.540;13.410;2023-03-26T06:33:17;99484.16;;;6.78;100.00
52625;BME280;38519;52.540;13.410;2023-03-26T06:35:43;99474.47;;;6.75;100.00
52625;BME280;38519;52.540;13.410;2023-03-26T06:38:09;99474.56;;;6.77;100.00
52625;BME280;38519;52.540;13.410;2023-03-26T06:40:34;99481.16;;;6.72;100.00
52625;BME280;38519;52.540;13.410;2023-03-26T06:43:00;99490.94;;;6.76;100.00
52625;BME280;38519;52.540;13.410;2023-03-26T06:45:26;99475.28;;;6.74;100.00
52625;BME280;38519;52.540;13.410;2023-03-26T06:47:51;99483.75;;;6.72;100.00
52625;BME280;38519;52.540;13.410;2023-03-26T06:50:16;99483.59;;;6.82;100.00
52625;BME280;38519;52.540;13.410;2023-03-26T06:52:42;99478.97;;;6.78;100.00
52625;BME280;38519;52.540;13.410;2023-03-26T06:55:07;99475.81;;;6.82;100.00
52625;BME280;38519;52.540;13.410;2023-03-26T06:57:34;99481.88;;;6.83;100.00
52625;BME280;38519;52.540;13.410;2023-03-26T06:59:59;99484.19;;;6.91;100.00
52625;BME280;38519;52.540;13.410;2023-03-26T07:02:24;99480.81;;;7.06;100.00
52625;BME280;38519;52.540;13.410;2023-03-26T07:04:50;99479.25;;;7.08;100.00
52625;BME280;38519;52.540;13.410;2023-03-26T07:07:15;99483.25;;;7.16;100.00
52625;BME280;38519;52.540;13.410;2023-03-26T07:09:42;99484.56;;;7.23;100.00
52625;BME280;38519;52.540;13.410;2023-03-26T07:12:08;99493.66;;;7.29;100.00
52625;BME280;38519;52.540;13.410;2023-03-26T07:14:33;99487.75;;;7.32;100.00
52625;BME280;38519;52.540;13.410;2023-03-26T07:16:58;99483.66;;;7.36;100.00
52625;BME280;38519;52.540;13.410;2023-03-26T07:19:25;99483.56;;;7.34;100.00
52625;BME280;38519;52.540;13.410;2023-03-26T07:21:51;99482.66;;;7.47;100.00
52625;BME280;38519;52.540;13.410;2023-03-26T07:24:16;99481.44;;;7.69;100.00
52625;BME280;38519;52.540;13.410;2023-03-26T07:29:33;99477.22;;;7.97;100.00
52625;BME280;38519;52.540;13.410;2023-03-26T07:32:06;99485.94;;;7.98;100.00
52625;BME280;38519;52.540;13.410;2023-03-26T07:37:21;99475.13;;;7.92;100.00
52625;BME280;38519;52.540;13.410;2023-03-26T07:39:51;99477.53;;;7.89;100.00
52625;BME280;38519;52.540;13.410;2023-03-26T07:47:45;99486.28;;;8.04;100.00
52625;BME280;38519;52.540;13.410;2023-03-26T07:50:18;99482.31;;;7.96;100.00
52625;BME280;38519;52.540;13.410;2023-03-26T07:52:43;99486.22;;;7.89;100.00
52625;BME280;38519;52.540;13.410;2023-03-26T07:55:12;99478.66;;;7.79;100.00
52625;BME280;38519;52.540;13.410;2023-03-26T08:00:29;99487.56;;;7.69;100.00
52625;BME280;38519;52.540;13.410;2023-03-26T08:05:33;99484.88;;;7.68;100.00
52625;BME280;38519;52.540;13.410;2023-03-26T08:10:26;99480.03;;;7.87;100.00
52625;BME280;38519;52.540;13.410;2023-03-26T08:23:12;99476.84;;;8.19;100.00
52625;BME280;38519;52.540;13.410;2023-03-26T08:28:13;99480.72;;;8.26;100.00
52625;BME280;38519;52.540;13.410;2023-03-26T08:30:40;99483.53;;;8.29;100.00
52625;BME280;38519;52.540;13.410;2023-03-26T08:35:30;99490.66;;;8.18;100.00
52625;BME280;38519;52.540;13.410;2023-03-26T08:37:59;99480.53;;;8.23;100.00
52625;BME280;38519;52.540;13.410;2023-03-26T08:45:27;99473.56;;;8.09;100.00
52625;BME280;38519;52.540;13.410;2023-03-26T08:59:07;99463.41;;;7.43;100.00
52625;BME280;38519;52.540;13.410;2023-03-26T09:42:44;99456.66;;;6.30;100.00
52625;BME280;38519;52.540;13.410;2023-03-26T09:50:25;99457.63;;;6.07;100.00
52625;BME280;38519;52.540;13.410;2023-03-26T10:08:35;99470.88;;;6.48;100.00
52625;BME280;38519;52.540;13.410;2023-03-26T10:13:50;99470.31;;;6.52;100.00
52625;BME280;38519;52.540;13.410;2023-03-26T10:16:27;99462.75;;;6.55;100.00
52625;BME280;38519;52.540;13.410;2023-03-26T10:18:58;99459.94;;;6.78;100.00
52625;BME280;38519;52.540;13.410;2023-03-26T10:21:42;99462.34;;;6.88;100.00
52625;BME280;38519;52.540;13.410;2023-03-26T10:39:44;99462.97;;;6.97;100.00
52625;BME280;38519;52.540;13.410;2023-03-26T10:52:18;99471.47;;;7.08;100.00
52625;BME280;38519;52.540;13.410;2023-03-26T10:54:47;99468.16;;;7.10;100.00
52625;BME280;38519;52.540;13.410;2023-03-26T10:59:40;99463.47;;;7.32;100.00
52625;BME280;38519;52.540;13.410;2023-03-26T11:10:03;99451.06;;;7.81;100.00
52625;BME280;38519;52.540;13.410;2023-03-26T11:15:16;99462.97;;;8.06;100.00
52625;BME280;38519;52.540;13.410;2023-03-26T11:30:54;99444.53;;;8.57;100.00
52625;BME280;38519;52.540;13.410;2023-03-26T11:33:24;99443.13;;;9.07;100.00
52625;BME280;38519;52.540;13.410;2023-03-26T11:35:51;99444.91;;;9.23;100.00
52625;BME280;38519;52.540;13.410;2023-03-26T11:38:23;99438.16;;;9.27;100.00
52625;BME280;38519;52.540;13.410;2023-03-26T11:40:53;99435.94;;;9.03;100.00
52625;BME280;38519;52.540;13.410;2023-03-26T11:43:24;99442.59;;;8.98;100.00
52625;BME280;38519;52.540;13.410;2023-03-26T11:45:50;99437.03;;;9.07;100.00
52625;BME280;38519;52.540;13.410;2023-03-26T11:50:43;99434.75;;;9.28;100.00
52625;BME280;38519;52.540;13.410;2023-03-26T11:53:14;99438.13;;;9.42;100.00
52625;BME280;38519;52.540;13.410;2023-03-26T11:55:57;99433.88;;;9.59;100.00
52625;BME280;38519;52.540;13.410;2023-03-26T12:00:48;99424.00;;;9.53;100.00
52625;BME280;38519;52.540;13.410;2023-03-26T12:03:16;99424.28;;;9.89;100.00
52625;BME280;38519;52.540;13.410;2023-03-26T12:05:49;99421.06;;;9.78;100.00
52625;BME280;38519;52.540;13.410;2023-03-26T12:08:20;99415.41;;;9.71;100.00
52625;BME280;38519;52.540;13.410;2023-03-26T12:10:48;99410.69;;;9.63;100.00
52625;BME280;38519;52.540;13.410;2023-03-26T12:15:43;99407.84;;;9.75;100.00
52625;BME280;38519;52.540;13.410;2023-03-26T12:18:29;99404.72;;;9.66;100.00
52625;BME280;38519;52.540;13.410;2023-03-26T12:21:13;99400.63;;;9.86;100.00
52625;BME280;38519;52.540;13.410;2023-03-26T12:26:13;99398.06;;;10.35;100.00
52625;BME280;38519;52.540;13.410;2023-03-26T12:28:42;99390.63;;;10.43;100.00
52625;BME280;38519;52.540;13.410;2023-03-26T12:31:09;99390.16;;;10.50;100.00
52625;BME280;38519;52.540;13.410;2023-03-26T12:33:35;99380.88;;;10.73;100.00
52625;BME280;38519;52.540;13.410;2023-03-26T12:39:21;99378.09;;;10.36;100.00
52625;BME280;38519;52.540;13.410;2023-03-26T12:41:56;99381.75;;;10.39;100.00
52625;BME280;38519;52.540;13.410;2023-03-26T12:44:27;99379.06;;;10.38;100.00
52625;BME280;38519;52.540;13.410;2023-03-26T12:49:51;99380.31;;;10.97;100.00
52625;BME280;38519;52.540;13.410;2023-03-26T12:57:18;99380.31;;;11.51;100.00
52625;BME280;38519;52.540;13.410;2023-03-26T13:04:54;99375.78;;;11.29;100.00
52625;BME280;38519;52.540;13.410;2023-03-26T13:15:23;99371.19;;;11.98;98.83
52625;BME280;38519;52.540;13.410;2023-03-26T13:18:00;99370.03;;;11.92;96.10
52625;BME280;38519;52.540;13.410;2023-03-26T13:20:48;99373.13;;;12.42;92.56
52625;BME280;38519;52.540;13.410;2023-03-26T13:30:56;99364.63;;;11.15;96.53
52625;BME280;38519;52.540;13.410;2023-03-26T13:41:25;99366.22;;;10.59;95.52
52625;BME280;38519;52.540;13.410;2023-03-26T13:46:28;99361.47;;;10.34;96.65
52625;BME280;38519;52.540;13.410;2023-03-26T13:51:34;99367.13;;;10.43;95.42
52625;BME280;38519;52.540;13.410;2023-03-26T13:54:04;99365.09;;;10.54;94.09
52625;BME280;38519;52.540;13.410;2023-03-26T13:56:34;99360.19;;;10.60;93.42
52625;BME280;38519;52.540;13.410;2023-03-26T13:59:02;99360.75;;;10.71;92.58
52625;BME280;38519;52.540;13.410;2023-03-26T14:01:37;99371.34;;;10.74;93.72
52625;BME280;38519;52.540;13.410;2023-03-26T14:04:22;99368.19;;;10.63;92.19
52625;BME280;38519;52.540;13.410;2023-03-26T14:06:51;99368.75;;;10.57;93.19
52625;BME280;38519;52.540;13.410;2023-03-26T14:09:25;99361.56;;;10.88;91.22
52625;BME280;38519;52.540;13.410;2023-03-26T14:17:22;99360.53;;;10.84;92.29
52625;BME280;38519;52.540;13.410;2023-03-26T14:27:50;99359.50;;;12.10;87.88
52625;BME280;38519;52.540;13.410;2023-03-26T14:30:46;99355.69;;;12.83;85.20
52625;BME280;38519;52.540;13.410;2023-03-26T14:35:59;99359.06;;;12.80;84.82
52625;BME280;38519;52.540;13.410;2023-03-26T14:41:01;99350.31;;;12.59;83.34
52625;BME280;38519;52.540;13.410;2023-03-26T14:46:18;99351.72;;;11.54;88.47
52625;BME280;38519;52.540;13.410;2023-03-26T14:54:17;99344.47;;;11.48;87.38
52625;BME280;38519;52.540;13.410;2023-03-26T14:56:47;99345.53;;;11.34;88.04
52625;BME280;38519;52.540;13.410;2023-03-26T15:02:13;99336.28;;;11.05;89.93
52625;BME280;38519;52.540;13.410;2023-03-26T15:04:45;99343.59;;;10.76;90.94
52625;BME280;38519;52.540;13.410;2023-03-26T15:44:28;99329.25;;;10.17;94.78
52625;BME280;38519;52.540;13.410;2023-03-26T15:49:18;99323.22;;;9.85;96.54
52625;BME280;38519;52.540;13.410;2023-03-26T15:51:57;99327.63;;;9.86;96.16
52625;BME280;38519;52.540;13.410;2023-03-26T16:02:40;99322.34;;;9.84;94.48
52625;BME280;38519;52.540;13.410;2023-03-26T16:18:26;99328.75;;;9.58;95.10
52625;BME280;38519;52.540;13.410;2023-03-26T16:20:53;99326.44;;;9.48;95.40
52625;BME280;38519;52.540;13.410;2023-03-26T16:28:21;99335.25;;;9.19;96.79
52625;BME280;38519;52.540;13.410;2023-03-26T16:31:03;99335.97;;;9.16;98.18
52625;BME280;38519;52.540;13.410;2023-03-26T16:33:37;99340.03;;;9.11;96.86
52625;BME280;38519;52.540;13.410;2023-03-26T16:38:49;99352.78;;;9.06;97.09
52625;BME280;38519;52.540;13.410;2023-03-26T16:41:18;99342.59;;;8.95;97.79
52625;BME280;38519;52.540;13.410;2023-03-26T16:46:32;99352.47;;;8.85;99.09
52625;BME280;38519;52.540;13.410;2023-03-26T16:49:02;99348.16;;;8.86;98.83
52625;BME280;38519;52.540;13.410;2023-03-26T16:56:53;99353.75;;;8.62;100.00
52625;BME280;38519;52.540;13.410;2023-03-26T16:59:30;99351.84;;;8.60;100.00
52625;BME280;38519;52.540;13.410;2023-03-26T17:02:04;99355.53;;;8.63;99.64
52625;BME280;38519;52.540;13.410;2023-03-26T17:04:37;99356.97;;;8.58;99.37
52625;BME280;38519;52.540;13.410;2023-03-26T17:07:21;99355.53;;;8.48;100.00
52625;BME280;38519;52.540;13.410;2023-03-26T17:15:12;99363.66;;;8.39;99.92
52625;BME280;38519;52.540;13.410;2023-03-26T17:35:49;99377.28;;;8.07;100.00
52625;BME280;38519;52.540;13.410;2023-03-26T17:43:13;99384.66;;;7.99;98.47
52625;BME280;38519;52.540;13.410;2023-03-26T17:45:56;99386.97;;;7.95;98.49
52625;BME280;38519;52.540;13.410;2023-03-26T17:48:21;99384.75;;;7.88;97.88
52625;BME280;38519;52.540;13.410;2023-03-26T17:50:55;99389.78;;;7.84;98.16
52625;BME280;38519;52.540;13.410;2023-03-26T17:53:28;99395.69;;;7.82;99.02
52625;BME280;38519;52.540;13.410;2023-03-26T17:55:59;99395.50;;;7.79;98.20
52625;BME280;38519;52.540;13.410;2023-03-26T17:58:34;99390.22;;;7.77;98.60
52625;BME280;38519;52.540;13.410;2023-03-26T18:01:05;99395.50;;;7.79;97.38
52625;BME280;38519;52.540;13.410;2023-03-26T18:03:41;99396.69;;;7.84;96.47
52625;BME280;38519;52.540;13.410;2023-03-26T18:06:15;99399.28;;;7.84;96.62
52625;BME280;38519;52.540;13.410;2023-03-26T18:16:22;99405.59;;;7.74;96.44
52625;BME280;38519;52.540;13.410;2023-03-26T18:21:27;99403.59;;;7.83;96.03
52625;BME280;38519;52.540;13.410;2023-03-26T18:23:54;99405.56;;;7.88;95.45
52625;BME280;38519;52.540;13.410;2023-03-26T18:26:22;99405.16;;;7.81;96.27
52625;BME280;38519;52.540;13.410;2023-03-26T18:28:48;99411.47;;;7.85;96.58
52625;BME280;38519;52.540;13.410;2023-03-26T18:33:41;99409.97;;;7.89;96.52
52625;BME280;38519;52.540;13.410;2023-03-26T18:36:07;99411.47;;;7.85;95.25
52625;BME280;38519;52.540;13.410;2023-03-26T18:38:35;99414.66;;;7.81;95.65
52625;BME280;38519;52.540;13.410;2023-03-26T18:41:00;99406.59;;;7.76;95.85
52625;BME280;38519;52.540;13.410;2023-03-26T18:43:26;99424.09;;;7.65;95.31
52625;BME280;38519;52.540;13.410;2023-03-26T18:45:51;99420.22;;;7.45;94.23
52625;BME280;38519;52.540;13.410;2023-03-26T18:48:18;99421.13;;;7.33;95.44
52625;BME280;38519;52.540;13.410;2023-03-26T18:50:45;99430.63;;;7.19;94.52
52625;BME280;38519;52.540;13.410;2023-03-26T18:53:15;99434.63;;;7.14;94.61
52625;BME280;38519;52.540;13.410;2023-03-26T18:55:42;99429.84;;;7.06;94.92
52625;BME280;38519;52.540;13.410;2023-03-26T18:58:25;99435.50;;;7.01;95.01
52625;BME280;38519;52.540;13.410;2023-03-26T19:00:51;99434.09;;;6.92;92.84
52625;BME280;38519;52.540;13.410;2023-03-26T19:03:19;99428.28;;;6.83;92.87
52625;BME280;38519;52.540;13.410;2023-03-26T19:05:46;99434.09;;;6.79;93.01
52625;BME280;38519;52.540;13.410;2023-03-26T19:08:11;99430.47;;;6.77;92.69
52625;BME280;38519;52.540;13.410;2023-03-26T19:10:37;99427.56;;;6.72;92.74
52625;BME280;38519;52.540;13.410;2023-03-26T19:13:02;99427.50;;;6.71;92.89
52625;BME280;38519;52.540;13.410;2023-03-26T19:15:29;99426.34;;;6.67;93.74
52625;BME280;38519;52.540;13.410;2023-03-26T19:17:56;99433.94;;;6.64;92.92
52625;BME280;38519;52.540;13.410;2023-03-26T19:20:27;99427.75;;;6.62;92.55
52625;BME280;38519;52.540;13.410;2023-03-26T19:22:53;99424.72;;;6.56;93.61
52625;BME280;38519;52.540;13.410;2023-03-26T19:27:44;99431.09;;;6.48;92.65
52625;BME280;38519;52.540;13.410;2023-03-26T19:30:12;99433.59;;;6.46;92.33